createdAt,value
2019-02-05T00:01:53.008Z,5.60
2019-02-05T00:04:24.980Z,6.70
2019-02-05T00:06:54.616Z,6.03
2019-02-05T00:09:24.193Z,5.97
2019-02-05T00:11:53.784Z,6.60
2019-02-05T00:14:23.798Z,6.80
2019-02-05T00:17:03.194Z,6.60
2019-02-05T00:19:48.441Z,7.07
2019-02-05T00:22:22.566Z,6.67
2019-02-05T00:24:52.976Z,7.67
2019-02-05T00:28:21.533Z,7.27
2019-02-05T00:31:08.462Z,6.50
2019-02-05T00:34:03.350Z,7.77
2019-02-05T00:36:51.607Z,7.50
2019-02-05T00:40:00.210Z,8.20
2019-02-05T00:42:54.538Z,8.73
2019-02-05T00:45:50.076Z,7.47
2019-02-05T00:48:24.542Z,9.53
2019-02-05T00:51:04.702Z,9.73
2019-02-05T00:53:36.259Z,9.27
2019-02-05T00:56:17.353Z,10.10
2019-02-05T00:58:41.251Z,9.57
2019-02-05T01:01:11.198Z,10.10
2019-02-05T01:03:41.008Z,9.57
2019-02-05T01:06:11.062Z,11.00
2019-02-05T01:08:40.914Z,10.30
2019-02-05T01:11:10.558Z,9.60
2019-02-05T01:13:40.197Z,11.13
2019-02-05T01:16:10.132Z,10.27
2019-02-05T01:18:40.012Z,9.23
2019-02-05T01:21:09.780Z,10.40
2019-02-05T01:23:39.316Z,11.53
2019-02-05T01:26:08.779Z,10.73
2019-02-05T01:28:38.360Z,10.53
2019-02-05T01:31:07.895Z,10.70
2019-02-05T01:33:37.486Z,11.47
2019-02-05T01:36:07.137Z,10.93
2019-02-05T01:38:36.741Z,10.87
2019-02-05T01:41:06.223Z,11.53
2019-02-05T01:43:35.928Z,9.80
2019-02-05T01:46:05.851Z,11.57
2019-02-05T01:48:35.397Z,12.00
2019-02-05T01:51:05.014Z,9.93
2019-02-05T01:53:34.610Z,10.27
2019-02-05T01:56:04.439Z,11.63
2019-02-05T01:58:33.979Z,11.83
2019-02-05T02:01:06.131Z,11.50
2019-02-05T02:03:35.707Z,10.70
2019-02-05T02:06:05.378Z,11.03
2019-02-05T02:08:34.946Z,11.53
2019-02-05T02:11:04.576Z,11.40
2019-02-05T02:13:34.264Z,11.83
2019-02-05T02:16:04.264Z,12.90
2019-02-05T02:18:33.799Z,12.30
2019-02-05T02:21:03.371Z,12.03
2019-02-05T02:23:32.987Z,12.00
2019-02-05T02:26:02.559Z,12.23
2019-02-05T02:28:32.033Z,12.30
2019-02-05T02:31:01.998Z,12.13
2019-02-05T02:33:31.558Z,11.93
2019-02-05T02:36:10.145Z,12.57
2019-02-05T02:38:39.858Z,12.13
2019-02-05T02:41:09.477Z,13.90
2019-02-05T02:43:39.310Z,15.07
2019-02-05T02:46:09.000Z,13.70
2019-02-05T02:48:38.546Z,12.60
2019-02-05T02:51:08.147Z,14.17
2019-02-05T02:53:37.911Z,14.67
2019-02-05T02:56:07.532Z,12.60
2019-02-05T02:58:37.182Z,13.90
2019-02-05T03:01:06.900Z,15.73
2019-02-05T03:03:36.494Z,13.80
2019-02-05T03:06:06.207Z,14.00
2019-02-05T03:08:35.855Z,14.53
2019-02-05T03:11:05.972Z,13.80
2019-02-05T03:13:35.768Z,14.87
2019-02-05T03:16:05.564Z,15.50
2019-02-05T03:18:35.181Z,14.20
2019-02-05T03:21:04.734Z,13.63
2019-02-05T03:23:34.257Z,12.30
2019-02-05T03:26:03.848Z,14.90
2019-02-05T03:28:33.338Z,15.47
2019-02-05T03:31:03.257Z,14.60
2019-02-05T03:33:32.798Z,13.47
2019-02-05T03:36:02.302Z,14.27
2019-02-05T03:38:31.862Z,13.67
2019-02-05T03:41:05.678Z,14.10
2019-02-05T03:43:36.097Z,13.90
2019-02-05T03:46:14.206Z,15.50
2019-02-05T03:48:45.715Z,14.40
2019-02-05T03:51:46.872Z,15.23
2019-02-05T03:54:55.561Z,13.37
2019-02-05T03:58:05.290Z,13.30
2019-02-05T04:00:52.908Z,13.53
2019-02-05T04:04:22.112Z,13.10
2019-02-05T04:07:21.776Z,12.33
2019-02-05T04:10:19.775Z,12.40
2019-02-05T04:13:35.128Z,13.80
2019-02-05T04:16:38.119Z,13.83
2019-02-05T04:19:52.085Z,13.00
2019-02-05T04:22:57.537Z,12.93
2019-02-05T04:26:13.114Z,11.87
2019-02-05T04:29:29.053Z,13.80
2019-02-05T04:32:45.406Z,13.70
2019-02-05T04:36:04.755Z,10.10
2019-02-05T04:39:17.127Z,13.10
2019-02-05T04:42:29.091Z,12.13
2019-02-05T04:45:34.076Z,13.03
2019-02-05T04:48:38.248Z,12.87
2019-02-05T04:52:03.592Z,13.80
2019-02-05T04:55:04.458Z,15.13
2019-02-05T04:58:36.581Z,13.43
2019-02-05T05:01:38.560Z,12.97
2019-02-05T05:04:30.451Z,15.60
2019-02-05T05:07:43.874Z,12.20
2019-02-05T05:10:13.450Z,14.27
2019-02-05T05:12:44.138Z,13.27
2019-02-05T05:15:14.399Z,16.40
2019-02-05T05:17:44.095Z,14.47
2019-02-05T05:20:14.065Z,14.70
2019-02-05T05:22:44.617Z,15.37
2019-02-05T05:25:14.210Z,12.67
2019-02-05T05:27:44.122Z,14.23
2019-02-05T05:30:17.136Z,16.00
2019-02-05T05:33:17.091Z,16.80
2019-02-05T05:35:44.230Z,15.53
2019-02-05T05:38:10.355Z,13.70
2019-02-05T05:40:39.866Z,15.23
2019-02-05T05:43:09.405Z,16.27
2019-02-05T05:45:38.829Z,13.70
2019-02-05T05:48:08.403Z,12.87
2019-02-05T05:50:38.021Z,12.63
2019-02-05T05:53:07.591Z,14.17
2019-02-05T05:55:37.087Z,17.70
2019-02-05T05:58:06.622Z,18.33
2019-02-05T06:00:36.128Z,20.27
2019-02-05T06:03:05.707Z,17.90
2019-02-05T06:05:36.362Z,15.20
2019-02-05T06:08:05.980Z,15.50
2019-02-05T06:10:35.580Z,24.07
2019-02-05T06:13:05.110Z,18.17
2019-02-05T06:15:36.035Z,17.87
2019-02-05T06:18:05.637Z,18.00
2019-02-05T06:20:35.483Z,16.63
2019-02-05T06:23:05.304Z,15.60
2019-02-05T06:25:34.913Z,13.17
2019-02-05T06:28:04.819Z,16.67
2019-02-05T06:30:34.400Z,15.10
2019-02-05T06:33:04.136Z,14.43
2019-02-05T06:35:34.126Z,16.07
2019-02-05T06:38:03.734Z,18.97
2019-02-05T06:40:33.426Z,17.87
2019-02-05T06:43:03.069Z,14.83
2019-02-05T06:45:32.863Z,12.93
2019-02-05T06:48:02.516Z,18.23
2019-02-05T06:50:32.413Z,16.60
2019-02-05T06:53:02.005Z,15.87
2019-02-05T06:55:31.659Z,15.73
2019-02-05T06:58:01.318Z,16.33
2019-02-05T07:00:31.074Z,15.43
2019-02-05T07:03:00.633Z,14.97
2019-02-05T07:05:30.221Z,14.50
2019-02-05T07:07:59.704Z,15.73
2019-02-05T07:10:29.201Z,16.03
2019-02-05T07:12:58.729Z,15.10
2019-02-05T07:15:28.208Z,15.40
2019-02-05T07:17:57.655Z,14.40
2019-02-05T07:20:27.145Z,14.77
2019-02-05T07:22:58.499Z,17.27
2019-02-05T07:25:32.104Z,14.47
2019-02-05T07:28:03.171Z,15.73
2019-02-05T07:30:34.346Z,16.57
2019-02-05T07:33:03.800Z,14.03
2019-02-05T07:35:33.337Z,11.90
2019-02-05T07:38:02.810Z,15.33
2019-02-05T07:40:32.350Z,16.40
2019-02-05T07:43:01.849Z,14.77
2019-02-05T07:45:31.393Z,15.90
2019-02-05T07:48:00.942Z,16.07
2019-02-05T07:50:30.379Z,18.53
2019-02-05T07:52:59.885Z,18.00
2019-02-05T07:55:29.643Z,18.77
2019-02-05T07:57:59.063Z,15.47
2019-02-05T08:00:29.044Z,15.00
2019-02-05T08:02:58.672Z,13.27
2019-02-05T08:05:32.493Z,16.07
2019-02-05T08:08:02.260Z,15.63
2019-02-05T08:10:31.988Z,14.27
2019-02-05T08:13:01.447Z,18.13
2019-02-05T08:15:32.508Z,16.23
2019-02-05T08:18:02.030Z,17.33
2019-02-05T08:20:31.493Z,15.70
2019-02-05T08:23:00.916Z,15.43
2019-02-05T08:25:30.339Z,17.10
2019-02-05T08:28:00.227Z,13.23
2019-02-05T08:30:32.190Z,13.73
2019-02-05T08:33:01.649Z,13.83
2019-02-05T08:35:31.127Z,16.20
2019-02-05T08:38:00.570Z,15.47
2019-02-05T08:40:29.967Z,13.93
2019-02-05T08:42:59.475Z,19.40
2019-02-05T08:45:30.427Z,18.90
2019-02-05T08:47:59.942Z,17.90
2019-02-05T08:50:29.643Z,14.33
2019-02-05T08:52:59.117Z,15.20
2019-02-05T08:55:30.749Z,14.10
2019-02-05T08:58:02.087Z,19.03
2019-02-05T09:00:33.595Z,16.53
2019-02-05T09:03:03.191Z,17.33
2019-02-05T09:05:32.677Z,17.20
2019-02-05T09:08:02.128Z,14.70
2019-02-05T09:10:33.383Z,16.17
2019-02-05T09:13:02.899Z,20.07
2019-02-05T09:15:32.625Z,16.70
2019-02-05T09:18:01.975Z,18.03
2019-02-05T09:20:31.345Z,16.63
2019-02-05T09:23:00.933Z,16.67
2019-02-05T09:25:30.484Z,15.93
2019-02-05T09:27:59.924Z,15.27
2019-02-05T09:30:31.264Z,17.53
2019-02-05T09:33:02.609Z,16.27
2019-02-05T09:35:32.083Z,18.97
2019-02-05T09:38:01.538Z,19.63
2019-02-05T09:40:32.024Z,21.57
2019-02-05T09:43:01.456Z,19.70
2019-02-05T09:45:31.651Z,19.07
2019-02-05T09:48:01.504Z,21.67
2019-02-05T09:50:43.492Z,20.23
2019-02-05T09:53:02.092Z,18.43
2019-02-05T09:55:31.532Z,17.30
2019-02-05T09:58:01.019Z,17.97
2019-02-05T10:00:32.925Z,20.47
2019-02-05T10:03:02.340Z,19.20
2019-02-05T10:05:32.673Z,21.80
2019-02-05T10:08:02.094Z,19.30
2019-02-05T10:10:31.673Z,18.57
2019-02-05T10:13:01.194Z,17.47
2019-02-05T10:15:32.900Z,19.93
2019-02-05T10:18:02.916Z,19.23
2019-02-05T10:20:32.496Z,15.60
2019-02-05T10:23:04.764Z,18.10
2019-02-05T10:25:34.226Z,17.73
2019-02-05T10:28:03.647Z,17.67
2019-02-05T10:30:35.576Z,18.67
2019-02-05T10:33:06.066Z,16.97
2019-02-05T10:35:35.531Z,16.77
2019-02-05T10:38:05.288Z,15.53
2019-02-05T10:40:34.871Z,16.13
2019-02-05T10:43:05.809Z,16.97
2019-02-05T10:45:35.423Z,16.93
2019-02-05T10:48:06.984Z,15.50
2019-02-05T10:50:36.506Z,15.77
2019-02-05T10:53:06.217Z,16.70
2019-02-05T10:55:35.663Z,14.47
2019-02-05T10:58:06.022Z,15.20
2019-02-05T11:00:35.809Z,16.37
2019-02-05T11:03:07.248Z,16.40
2019-02-05T11:05:37.006Z,14.37
2019-02-05T11:08:06.962Z,14.53
2019-02-05T11:10:36.670Z,14.23
2019-02-05T11:13:07.130Z,14.60
2019-02-05T11:15:36.664Z,14.03
2019-02-05T11:18:08.724Z,15.10
2019-02-05T11:20:38.338Z,12.20
2019-02-05T11:23:08.079Z,15.10
2019-02-05T11:25:37.599Z,13.13
2019-02-05T11:28:07.045Z,17.47
2019-02-05T11:30:42.147Z,16.20
2019-02-05T11:33:12.059Z,13.30
2019-02-05T11:35:41.555Z,14.93
2019-02-05T11:38:12.160Z,15.77
2019-02-05T11:40:42.125Z,15.73
2019-02-05T11:43:11.698Z,12.50
2019-02-05T11:45:41.352Z,15.13
2019-02-05T11:48:13.945Z,13.50
2019-02-05T11:50:43.413Z,12.97
2019-02-05T11:53:12.869Z,15.03
2019-02-05T11:55:42.218Z,12.53
2019-02-05T11:58:11.925Z,14.30
2019-02-05T12:00:57.898Z,14.27
2019-02-05T12:03:27.300Z,13.67
2019-02-05T12:05:56.804Z,14.43
2019-02-05T12:08:26.189Z,13.23
2019-02-05T12:10:55.601Z,14.13
2019-02-05T12:13:25.091Z,14.80
2019-02-05T12:15:54.807Z,14.20
2019-02-05T12:18:24.800Z,13.37
2019-02-05T12:20:54.236Z,13.10
2019-02-05T12:23:23.677Z,13.13
2019-02-05T12:25:53.141Z,12.63
2019-02-05T12:28:25.802Z,15.67
2019-02-05T12:30:55.226Z,14.30
2019-02-05T12:33:24.559Z,13.87
2019-02-05T12:35:54.042Z,15.77
2019-02-05T12:38:23.440Z,13.73
2019-02-05T12:40:52.777Z,12.70
2019-02-05T12:43:22.212Z,15.53
2019-02-05T12:45:51.515Z,15.83
2019-02-05T12:48:20.986Z,14.60
2019-02-05T12:50:50.407Z,12.83
2019-02-05T12:53:19.858Z,14.43
2019-02-05T12:55:49.243Z,12.70
2019-02-05T12:58:18.571Z,11.23
2019-02-05T13:00:58.293Z,12.47
2019-02-05T13:03:24.248Z,11.43
2019-02-05T13:05:53.863Z,12.23
2019-02-05T13:08:23.204Z,15.67
2019-02-05T13:10:53.464Z,12.53
2019-02-05T13:13:22.801Z,13.17
2019-02-05T13:15:52.107Z,13.30
2019-02-05T13:18:21.836Z,12.47
2019-02-05T13:20:51.373Z,12.47
2019-02-05T13:23:20.785Z,13.20
2019-02-05T13:25:50.117Z,11.60
2019-02-05T13:28:19.494Z,12.50
2019-02-05T13:30:48.830Z,12.13
2019-02-05T13:33:18.489Z,12.57
2019-02-05T13:35:47.836Z,15.53
2019-02-05T13:38:17.161Z,12.30
2019-02-05T13:40:46.566Z,14.43
2019-02-05T13:43:15.938Z,12.13
2019-02-05T13:45:46.052Z,13.57
2019-02-05T13:48:15.380Z,12.97
2019-02-05T13:50:44.730Z,13.50
2019-02-05T13:53:14.149Z,11.13
2019-02-05T13:55:46.106Z,13.10
2019-02-05T13:58:15.825Z,12.93
2019-02-05T14:00:47.524Z,14.37
2019-02-05T14:03:17.143Z,14.10
2019-02-05T14:05:46.630Z,11.77
2019-02-05T14:08:16.043Z,14.83
2019-02-05T14:10:45.847Z,13.80
2019-02-05T14:13:15.257Z,14.60
2019-02-05T14:15:45.780Z,14.30
2019-02-05T14:18:15.085Z,16.07
2019-02-05T14:20:44.425Z,14.13
2019-02-05T14:23:13.824Z,11.67
2019-02-05T14:25:43.166Z,12.30
2019-02-05T14:28:12.685Z,12.23
2019-02-05T14:30:50.769Z,12.13
2019-02-05T14:33:20.146Z,14.47
2019-02-05T14:35:49.467Z,13.20
2019-02-05T14:38:18.808Z,15.20
2019-02-05T14:40:48.185Z,13.13
2019-02-05T14:43:17.563Z,13.53
2019-02-05T14:45:46.997Z,14.30
2019-02-05T14:48:16.416Z,11.40
2019-02-05T14:50:46.763Z,12.83
2019-02-05T14:53:21.969Z,12.20
2019-02-05T14:55:51.300Z,12.73
2019-02-05T14:58:22.465Z,13.93
2019-02-05T15:00:51.846Z,21.52
2019-02-05T15:03:21.352Z,15.57
2019-02-05T15:05:50.825Z,14.43
2019-02-05T15:08:20.875Z,14.43
2019-02-05T15:10:50.304Z,13.10
2019-02-05T15:13:19.894Z,13.50
2019-02-05T15:15:49.285Z,15.20
2019-02-05T15:18:20.507Z,17.00
2019-02-05T15:20:50.606Z,14.80
2019-02-05T15:23:20.416Z,14.47
2019-02-05T15:25:49.902Z,15.60
2019-02-05T15:28:19.380Z,13.27
2019-02-05T15:30:48.761Z,15.73
2019-02-05T15:33:41.655Z,15.83
2019-02-05T15:36:31.557Z,15.57
2019-02-05T15:39:00.673Z,12.50
2019-02-05T15:41:30.284Z,15.80
2019-02-05T15:44:00.740Z,16.20
2019-02-05T15:46:30.831Z,16.20
2019-02-05T15:49:00.404Z,16.27
2019-02-05T15:51:29.779Z,16.47
2019-02-05T15:53:59.125Z,13.33
2019-02-05T15:56:28.612Z,16.40
2019-02-05T15:58:58.098Z,15.60
2019-02-05T16:01:27.902Z,15.57
2019-02-05T16:03:57.355Z,15.33
2019-02-05T16:06:26.796Z,14.77
2019-02-05T16:08:56.238Z,14.93
2019-02-05T16:11:27.488Z,15.00
2019-02-05T16:13:56.938Z,17.77
2019-02-05T16:16:26.773Z,17.10
2019-02-05T16:18:56.334Z,14.33
2019-02-05T16:21:25.724Z,14.03
2019-02-05T16:23:58.047Z,14.97
2019-02-05T16:26:26.336Z,14.60
2019-02-05T16:28:55.710Z,16.73
2019-02-05T16:31:27.838Z,16.20
2019-02-05T16:33:56.489Z,15.07
2019-02-05T16:36:26.056Z,13.80
2019-02-05T16:38:55.490Z,12.37
2019-02-05T16:41:24.853Z,15.93
2019-02-05T16:43:54.262Z,19.10
2019-02-05T16:46:23.732Z,25.40
2019-02-05T16:48:53.154Z,40.43
2019-02-05T16:51:22.524Z,25.33
2019-02-05T16:53:51.929Z,18.60
2019-02-05T16:56:21.328Z,15.43
2019-02-05T16:58:50.905Z,16.27
2019-02-05T17:01:20.696Z,15.33
2019-02-05T17:03:50.329Z,16.43
2019-02-05T17:06:20.173Z,14.20
2019-02-05T17:08:49.961Z,16.30
2019-02-05T17:11:19.655Z,18.80
2019-02-05T17:13:49.241Z,15.93
2019-02-05T17:16:18.839Z,18.23
2019-02-05T17:18:48.588Z,15.57
2019-02-05T17:21:18.364Z,14.67
2019-02-05T17:23:48.015Z,17.37
2019-02-05T17:26:17.720Z,19.27
2019-02-05T17:28:47.377Z,17.60
2019-02-05T17:31:16.944Z,15.83
2019-02-05T17:33:46.726Z,16.93
2019-02-05T17:36:16.371Z,17.67
2019-02-05T17:38:46.084Z,17.47
2019-02-05T17:41:15.673Z,17.50
2019-02-05T17:43:45.672Z,17.23
2019-02-05T17:46:20.303Z,16.03
2019-02-05T17:48:51.770Z,16.10
2019-02-05T17:51:21.639Z,17.93
2019-02-05T17:53:51.307Z,17.17
2019-02-05T17:56:21.181Z,17.63
2019-02-05T17:58:50.903Z,17.93
2019-02-05T18:01:21.015Z,17.37
2019-02-05T18:03:50.605Z,19.03
2019-02-05T18:06:20.463Z,16.47
2019-02-05T18:08:50.662Z,17.00
2019-02-05T18:11:20.419Z,17.10
2019-02-05T18:13:50.426Z,19.37
2019-02-05T18:16:21.274Z,16.37
2019-02-05T18:18:51.360Z,17.67
2019-02-05T18:21:21.532Z,20.03
2019-02-05T18:23:51.507Z,20.27
2019-02-05T18:26:21.611Z,19.80
2019-02-05T18:35:44.442Z,21.30
2019-02-05T18:38:16.187Z,20.13
2019-02-05T18:40:46.456Z,19.53
2019-02-05T18:43:16.744Z,26.10
2019-02-05T18:45:46.554Z,23.47
2019-02-05T18:48:26.916Z,27.20
2019-02-05T18:51:02.191Z,29.30
2019-02-05T19:34:42.810Z,23.10
2019-02-05T19:37:12.644Z,23.07
2019-02-05T19:39:42.507Z,29.12
2019-02-05T19:42:12.984Z,27.00
2019-02-05T19:44:48.494Z,22.53
2019-02-05T19:47:26.994Z,22.30
2019-02-05T19:49:59.442Z,21.67
2019-02-05T19:52:30.188Z,26.00
2019-02-05T19:55:00.010Z,21.83
2019-02-05T19:57:29.802Z,21.97
2019-02-05T19:59:59.862Z,21.37
2019-02-05T20:02:29.742Z,21.63
2019-02-05T20:04:59.353Z,21.77
2019-02-05T20:07:29.053Z,22.20
2019-02-05T20:09:58.704Z,21.17
2019-02-05T20:12:31.904Z,20.83
2019-02-05T20:15:01.549Z,27.90
2019-02-05T20:17:31.259Z,20.97
2019-02-05T20:20:00.838Z,19.30
2019-02-05T20:22:30.596Z,20.43
2019-02-05T20:25:00.345Z,20.50
2019-02-05T20:27:30.425Z,20.53
2019-02-05T20:30:08.162Z,21.73
2019-02-05T20:32:37.791Z,24.73
2019-02-05T20:35:07.678Z,22.73
2019-02-05T20:37:40.163Z,19.13
2019-02-05T20:40:13.124Z,23.27
2019-02-05T20:42:42.926Z,20.87
2019-02-05T20:45:12.953Z,20.93
2019-02-05T20:47:42.625Z,22.27
2019-02-05T20:50:14.067Z,23.93
2019-02-05T20:56:24.018Z,23.23
2019-02-05T20:58:53.727Z,25.20
2019-02-05T21:01:23.655Z,21.83
2019-02-05T21:04:01.007Z,25.97
2019-02-05T21:06:36.640Z,26.07
2019-02-05T21:09:16.394Z,28.10
2019-02-05T21:15:38.435Z,26.17
2019-02-05T21:18:17.383Z,26.73
2019-02-05T21:20:45.848Z,27.70
2019-02-05T21:23:15.475Z,28.03
2019-02-05T21:25:45.251Z,26.87
2019-02-05T21:28:14.804Z,29.70
2019-02-05T21:30:44.807Z,31.50
2019-02-05T21:33:14.485Z,30.17
2019-02-05T21:39:22.068Z,26.47
2019-02-05T21:41:51.626Z,29.37
2019-02-05T21:44:21.339Z,26.77
2019-02-05T21:46:50.956Z,25.30
2019-02-05T21:49:20.933Z,28.00
2019-02-05T21:51:51.308Z,25.57
2019-02-05T21:54:20.986Z,27.03
2019-02-05T21:57:23.428Z,26.13
2019-02-05T21:59:59.683Z,25.23
2019-02-05T22:02:29.394Z,25.97
2019-02-05T22:04:59.050Z,27.20
2019-02-05T22:08:13.274Z,26.93
2019-02-05T22:10:38.772Z,26.73
2019-02-05T22:13:08.609Z,30.20
2019-02-05T22:15:38.470Z,25.73
2019-02-05T22:18:08.002Z,28.23
2019-02-05T22:24:22.610Z,25.30
2019-02-05T22:26:52.273Z,25.00
2019-02-05T22:29:22.018Z,23.90
2019-02-05T22:31:51.656Z,22.97
2019-02-05T22:34:21.992Z,21.17
2019-02-05T22:36:51.702Z,21.67
2019-02-05T22:39:21.226Z,25.63
2019-02-05T22:41:50.927Z,21.33
